Time;durP1;ratioP1;P1;durP2;ratioP2;P2;SDS_P1;SDS_P2;PMS_P1;PMS_P2;Temp;Humidity;BMP_temperature;BMP_pressure;BME280_temperature;BME280_humidity;BME280_pressure;Samples;Min_cycle;Max_cycle;Signal;HPM_P1;HPM_P2
2022/11/13 00:00:38;;;;;;;15.75;11.05;;;9.60;99.90;;;8.75;100.00;101875.53;4187531;28;20025;-81
2022/11/13 00:02:39;;;;;;;16.13;12.10;;;9.60;99.90;;;8.77;100.00;101886.75;4187925;28;20033;-81
2022/11/13 00:04:40;;;;;;;16.80;12.80;;;9.60;99.90;;;8.77;100.00;101877.06;4187546;28;20036;-81
2022/11/13 00:06:41;;;;;;;22.60;13.82;;;9.60;99.90;;;8.67;100.00;101862.94;4187265;28;20443;-81
2022/11/13 00:08:43;;;;;;;19.45;11.98;;;9.60;99.90;;;8.77;100.00;101857.81;4187321;28;20033;-81
2022/11/13 00:10:44;;;;;;;18.63;11.73;;;9.60;99.90;;;8.81;100.00;101867.16;4203086;28;20025;-81
2022/11/13 00:12:45;;;;;;;15.85;11.95;;;9.60;99.90;;;8.75;100.00;101857.09;4187431;28;20029;-81
2022/11/13 00:14:46;;;;;;;18.40;11.77;;;9.60;99.90;;;8.74;100.00;101858.91;4203063;28;20539;-81
2022/11/13 00:16:47;;;;;;;17.10;10.30;;;9.60;99.90;;;8.69;100.00;101855.75;4202559;28;20025;-81
2022/11/13 00:18:48;;;;;;;14.63;11.07;;;9.60;99.90;;;8.69;100.00;101852.31;4186595;28;20040;-81
2022/11/13 00:20:48;;;;;;;18.50;11.38;;;9.50;99.90;;;8.61;100.00;101847.63;4187338;28;20036;-81
2022/11/13 00:22:49;;;;;;;13.55;10.60;;;9.50;99.90;;;8.64;100.00;101846.53;4187036;28;20029;-81
2022/11/13 00:24:50;;;;;;;18.65;12.05;;;9.50;99.90;;;8.63;100.00;101848.31;4187148;28;20036;-81
2022/11/13 00:26:51;;;;;;;20.48;11.82;;;9.50;99.90;;;8.56;100.00;101836.63;4187251;28;20040;-81
2022/11/13 00:29:02;;;;;;;15.70;11.15;;;9.50;99.90;;;8.56;100.00;101835.78;4185798;28;20021;-81
2022/11/13 00:31:05;;;;;;;16.35;11.00;;;9.40;99.90;;;8.50;100.00;101823.94;4180870;28;20036;-81
2022/11/13 00:33:06;;;;;;;14.40;9.85;;;9.40;99.90;;;8.50;100.00;101826.56;4202452;28;20025;-81
2022/11/13 00:35:07;;;;;;;16.63;11.23;;;9.40;99.90;;;8.45;100.00;101823.44;4202524;28;20447;-81
2022/11/13 00:37:08;;;;;;;17.58;11.07;;;9.30;99.90;;;8.46;100.00;101819.00;4202303;28;20100;-80
2022/11/13 00:39:09;;;;;;;18.75;10.38;;;9.30;99.90;;;8.49;100.00;101826.66;4187116;28;20025;-81
2022/11/13 00:41:10;;;;;;;16.42;10.45;;;9.30;99.90;;;8.44;100.00;101813.88;4202331;28;20027;-81
2022/11/13 00:43:11;;;;;;;17.25;10.40;;;9.30;99.90;;;8.43;100.00;101814.81;4202447;28;20020;-81
2022/11/13 00:45:13;;;;;;;13.98;10.38;;;9.30;99.90;;;8.30;100.00;101804.38;4185707;28;20442;-81
2022/11/13 00:47:13;;;;;;;14.05;9.02;;;9.30;99.90;;;8.35;100.00;101806.69;4187263;28;20112;-81
2022/11/13 00:49:15;;;;;;;14.93;10.45;;;9.20;99.90;;;8.32;100.00;101806.91;4202177;28;20025;-81
2022/11/13 00:51:16;;;;;;;17.48;11.15;;;9.20;99.90;;;8.33;100.00;101798.91;4187011;28;20433;-81
2022/11/13 00:53:17;;;;;;;17.00;11.50;;;9.20;99.90;;;8.39;100.00;101800.25;4186611;28;20035;-81
2022/11/13 00:55:17;;;;;;;15.48;10.45;;;9.30;99.90;;;8.40;100.00;101806.31;4202185;28;20043;-81
2022/11/13 00:57:18;;;;;;;15.98;12.43;;;9.30;99.90;;;8.42;100.00;101788.66;4202045;28;20028;-81
2022/11/13 00:59:19;;;;;;;18.80;13.20;;;9.30;99.90;;;8.47;100.00;101789.97;4202269;28;20070;-81
2022/11/13 01:01:20;;;;;;;23.15;15.00;;;9.30;99.90;;;8.54;100.00;101795.63;4202149;28;20439;-81
2022/11/13 01:03:21;;;;;;;18.30;11.63;;;9.40;99.90;;;8.50;100.00;101797.63;4202104;28;20029;-81
2022/11/13 01:05:22;;;;;;;20.50;14.52;;;9.40;99.90;;;8.52;100.00;101802.75;4186524;28;20094;-81
2022/11/13 01:07:23;;;;;;;22.40;14.60;;;9.40;99.90;;;8.52;100.00;101819.38;4186495;28;20028;-82
2022/11/13 01:09:23;;;;;;;27.13;16.58;;;9.40;99.90;;;8.63;100.00;101811.50;4201962;28;20028;-81
2022/11/13 01:11:29;;;;;;;25.35;16.25;;;9.50;99.90;;;8.78;100.00;101828.75;4186521;28;20119;-81
2022/11/13 01:13:30;;;;;;;27.55;16.52;;;9.50;99.90;;;8.73;100.00;101823.00;4201648;28;20028;-80
2022/11/13 01:15:30;;;;;;;22.38;14.65;;;9.50;99.90;;;8.75;100.00;101825.53;4201563;28;20025;-81
2022/11/13 01:17:31;;;;;;;24.90;15.68;;;9.50;99.90;;;8.77;100.00;101819.19;4186456;28;20059;-81
2022/11/13 01:19:32;;;;;;;40.92;23.73;;;9.60;99.90;;;8.89;100.00;101820.88;4201673;28;20032;-81
2022/11/13 01:21:33;;;;;;;26.73;20.65;;;9.60;99.90;;;8.82;100.00;101817.03;4186039;28;20032;-80
2022/11/13 01:23:34;;;;;;;22.60;14.68;;;9.60;99.90;;;8.90;100.00;101826.97;4201841;28;20088;-81
2022/11/13 01:25:35;;;;;;;18.67;14.27;;;9.70;99.90;;;8.74;100.00;101824.69;4201520;28;20032;-80
2022/11/13 01:27:37;;;;;;;20.40;13.93;;;9.60;99.90;;;8.69;100.00;101829.44;4185163;28;20033;-80
2022/11/13 01:29:38;;;;;;;21.85;13.57;;;9.60;99.90;;;8.68;100.00;101824.31;4185242;28;20040;-80
2022/11/13 01:31:39;;;;;;;19.38;12.77;;;9.50;99.90;;;8.61;100.00;101823.94;4186079;28;20033;-81
2022/11/13 01:33:40;;;;;;;23.98;15.80;;;9.50;99.90;;;8.60;100.00;101832.78;4201172;28;20494;-82
2022/11/13 01:35:41;;;;;;;22.92;14.88;;;9.50;99.90;;;8.57;100.00;101822.50;4184885;28;20044;-81
2022/11/13 01:37:41;;;;;;;22.33;14.73;;;9.40;99.90;;;8.57;100.00;101822.50;4201193;28;20028;-81
2022/11/13 01:39:42;;;;;;;18.13;13.57;;;9.40;99.90;;;8.64;100.00;101836.03;4201321;28;20029;-81
2022/11/13 01:41:43;;;;;;;19.17;13.48;;;9.40;99.90;;;8.49;100.00;101838.03;4186167;28;20033;-82
2022/11/13 01:43:44;;;;;;;22.27;14.93;;;9.40;99.90;;;8.53;100.00;101838.63;4201391;28;20029;-81
2022/11/13 01:45:57;;;;;;;24.40;14.55;;;9.30;99.90;;;8.53;100.00;101842.13;4200007;28;20031;-81
2022/11/13 01:47:59;;;;;;;21.95;14.50;;;9.30;99.90;;;8.46;100.00;101843.50;4173494;28;20036;-80
2022/11/13 01:50:01;;;;;;;18.48;13.18;;;9.30;99.90;;;8.45;100.00;101856.78;4201320;28;20468;-81
2022/11/13 01:52:07;;;;;;;22.20;14.35;;;9.30;99.90;;;8.39;100.00;101839.69;4201006;28;20094;-81
2022/11/13 01:54:37;;;;;;;18.33;12.00;;;9.30;99.90;;;8.40;100.00;101848.38;4200572;28;20478;-81
2022/11/13 01:56:39;;;;;;;22.23;13.75;;;9.20;99.90;;;8.37;100.00;101841.56;4185352;28;20126;-81
2022/11/13 01:58:44;;;;;;;24.92;15.02;;;9.20;99.90;;;8.36;100.00;101837.28;4185943;28;20215;-81
2022/11/13 02:00:45;;;;;;;21.52;14.43;;;9.20;99.90;;;8.38;100.00;101843.25;4184307;28;20033;-81
2022/11/13 02:02:46;;;;;;;23.98;14.68;;;9.20;99.90;;;8.37;100.00;101846.84;4200949;28;20067;-81
2022/11/13 02:04:47;;;;;;;22.10;13.85;;;9.20;99.90;;;8.34;100.00;101836.53;4185687;28;20033;-81
2022/11/13 02:06:53;;;;;;;25.92;15.93;;;9.20;99.90;;;8.39;100.00;101831.81;4200803;28;20025;-81
2022/11/13 02:08:55;;;;;;;25.95;16.33;;;9.20;99.90;;;8.35;100.00;101827.72;4200640;28;20111;-80
2022/11/13 02:10:56;;;;;;;21.33;14.48;;;9.20;99.90;;;8.33;100.00;101827.00;4185835;28;20017;-80
2022/11/13 02:12:57;;;;;;;26.92;16.00;;;9.20;99.90;;;8.31;100.00;101816.59;4201106;28;20028;-80
2022/11/13 02:15:01;;;;;;;24.85;14.63;;;9.10;99.90;;;8.33;100.00;101822.56;4184396;28;20029;-80
2022/11/13 02:17:07;;;;;;;21.27;13.27;;;9.10;99.90;;;8.29;100.00;101815.03;4168196;28;20045;-81
2022/11/13 02:19:18;;;;;;;18.40;11.55;;;9.10;99.90;;;8.18;100.00;101801.84;4185571;28;20068;-80
2022/11/13 02:21:36;;;;;;;18.40;12.82;;;9.10;99.90;;;8.13;100.00;101803.94;4185584;28;20021;-80
2022/11/13 02:23:57;;;;;;;18.15;12.55;;;9.00;99.90;;;8.09;100.00;101799.88;4185640;28;20040;-81
2022/11/13 02:25:58;;;;;;;16.10;11.38;;;9.00;99.90;;;8.00;100.00;101792.69;4185544;28;20108;-80
2022/11/13 02:27:59;;;;;;;18.10;11.05;;;8.90;99.90;;;7.96;100.00;101778.09;4200772;28;20103;-81
2022/11/13 02:30:24;;;;;;;14.23;10.60;;;8.90;99.90;;;7.90;100.00;101779.38;4184094;28;20025;-81
2022/11/13 02:32:25;;;;;;;18.85;11.18;;;8.90;99.90;;;7.85;100.00;101772.81;4184184;28;20037;-81
2022/11/13 02:34:26;;;;;;;18.00;11.15;;;8.80;99.90;;;7.82;100.00;101769.44;4200528;28;20040;-81
2022/11/13 02:36:28;;;;;;;20.92;10.60;;;8.70;99.90;;;7.80;100.00;101766.09;4184937;28;20033;-81
2022/11/13 02:38:31;;;;;;;15.90;10.85;;;8.70;99.90;;;7.80;100.00;101770.50;4200751;28;20028;-81
2022/11/13 02:40:33;;;;;;;17.63;11.82;;;8.70;99.90;;;7.66;100.00;101745.25;4200503;28;20141;-80
2022/11/13 02:42:34;;;;;;;17.23;11.57;;;8.60;99.90;;;7.74;100.00;101745.53;4184881;28;20112;-81
2022/11/13 02:44:34;;;;;;;18.42;11.45;;;8.60;99.90;;;7.72;100.00;101739.56;4184589;28;20139;-80
2022/11/13 02:46:36;;;;;;;17.17;11.55;;;8.60;99.90;;;7.67;100.00;101757.47;4183846;28;20056;-80
2022/11/13 02:48:36;;;;;;;18.08;12.50;;;8.60;99.90;;;7.67;100.00;101746.09;4184018;28;20107;-81
2022/11/13 02:50:38;;;;;;;19.20;12.05;;;8.50;99.90;;;7.69;100.00;101737.16;4183959;28;20048;-80
2022/11/13 02:52:39;;;;;;;19.90;12.27;;;8.50;99.90;;;7.66;100.00;101741.81;4184830;28;20029;-80
2022/11/13 02:54:40;;;;;;;17.40;12.73;;;8.60;99.90;;;7.65;100.00;101738.31;4184556;28;20047;-80
2022/11/13 02:56:40;;;;;;;17.35;12.95;;;8.60;99.90;;;7.67;100.00;101733.81;4185112;28;20029;-80
2022/11/13 02:58:41;;;;;;;19.30;13.25;;;8.50;99.90;;;7.66;100.00;101745.25;4200619;28;20029;-80
2022/11/13 03:00:42;;;;;;;22.08;13.45;;;8.60;99.90;;;7.68;100.00;101742.50;4183835;28;20072;-81
2022/11/13 03:02:43;;;;;;;22.15;14.27;;;8.50;99.90;;;7.73;100.00;101735.16;4183738;28;20032;-80
2022/11/13 03:04:45;;;;;;;22.30;13.77;;;8.60;99.90;;;7.71;100.00;101726.53;4185103;28;20599;-80
2022/11/13 03:06:46;;;;;;;18.48;12.95;;;8.60;99.90;;;7.69;100.00;101708.28;4200417;28;20468;-80
2022/11/13 03:08:46;;;;;;;17.67;12.68;;;8.60;99.90;;;7.73;100.00;101712.38;4200380;28;20028;-81
2022/11/13 03:10:47;;;;;;;17.50;13.60;;;8.60;99.90;;;7.75;100.00;101707.81;4185245;28;20033;-81
2022/11/13 03:12:48;;;;;;;19.95;13.68;;;8.60;99.90;;;7.76;100.00;101704.22;4185133;28;20017;-80
2022/11/13 03:14:49;;;;;;;20.55;13.25;;;8.60;99.90;;;7.69;100.00;101697.78;4183625;28;20029;-80
2022/11/13 03:16:50;;;;;;;21.40;13.50;;;8.60;99.90;;;7.69;100.00;101710.91;4183741;28;20025;-81
2022/11/13 03:18:51;;;;;;;21.00;13.48;;;8.60;99.90;;;7.65;100.00;101705.97;4181896;28;20029;-80
2022/11/13 03:20:52;;;;;;;22.45;12.90;;;8.60;99.90;;;7.63;100.00;101698.22;4174586;28;20428;-81
2022/11/13 03:22:53;;;;;;;18.25;12.57;;;8.50;99.90;;;7.64;100.00;101692.03;4183429;28;20546;-81
2022/11/13 03:24:54;;;;;;;15.40;11.75;;;8.50;99.90;;;7.56;100.00;101686.50;4184785;28;20040;-80
2022/11/13 03:26:55;;;;;;;20.80;12.73;;;8.50;99.90;;;7.55;100.00;101694.50;4185039;28;20400;-80
2022/11/13 03:28:56;;;;;;;23.30;12.80;;;8.50;99.90;;;7.47;100.00;101692.41;4184891;28;20025;-80
2022/11/13 03:30:57;;;;;;;25.75;13.35;;;8.40;99.90;;;7.47;100.00;101688.94;4185040;28;20057;-81
2022/11/13 03:32:57;;;;;;;16.85;10.55;;;8.40;99.90;;;7.44;100.00;101679.53;4183328;28;20032;-80
2022/11/13 03:34:58;;;;;;;15.40;10.95;;;8.30;99.90;;;7.46;100.00;101684.66;4183816;28;20032;-80
2022/11/13 03:36:59;;;;;;;16.45;11.73;;;8.30;99.90;;;7.42;100.00;101684.06;4200181;28;20503;-81
2022/11/13 03:39:00;;;;;;;21.75;12.93;;;8.30;99.90;;;7.39;100.00;101665.91;4184952;28;20580;-81
2022/11/13 03:41:01;;;;;;;20.77;13.27;;;8.30;99.90;;;7.40;100.00;101669.38;4200161;28;20387;-81
2022/11/13 03:43:02;;;;;;;20.23;12.35;;;8.30;99.90;;;7.39;100.00;101671.16;4184914;28;20036;-81
2022/11/13 03:45:03;;;;;;;17.13;11.15;;;8.30;99.90;;;7.40;100.00;101672.84;4198818;28;20020;-80
2022/11/13 03:47:04;;;;;;;15.98;10.55;;;8.30;99.90;;;7.38;100.00;101669.47;4184937;28;20135;-81
2022/11/13 03:49:05;;;;;;;20.77;11.68;;;8.20;99.90;;;7.37;100.00;101670.44;4184848;28;20059;-81
2022/11/13 03:51:06;;;;;;;19.20;13.15;;;8.20;99.90;;;7.35;100.00;101668.88;4183391;28;20067;-81
2022/11/13 03:53:07;;;;;;;20.20;13.65;;;8.30;99.90;;;7.40;100.00;101659.72;4183570;28;20064;-81
2022/11/13 03:55:08;;;;;;;17.45;11.90;;;8.30;99.90;;;7.43;100.00;101670.00;4186083;28;20033;-81
2022/11/13 03:57:09;;;;;;;17.23;11.60;;;8.30;99.90;;;7.43;100.00;101663.91;4184436;28;20024;-81
2022/11/13 03:59:10;;;;;;;21.70;13.13;;;8.30;99.90;;;7.35;100.00;101661.81;4187678;28;20025;-81
2022/11/13 04:01:10;;;;;;;19.92;13.00;;;8.30;99.90;;;7.40;100.00;101664.97;4186402;28;20016;-81
2022/11/13 04:03:11;;;;;;;19.83;13.32;;;8.30;99.90;;;7.34;100.00;101654.91;4187709;28;20036;-81
2022/11/13 04:05:12;;;;;;;20.75;13.73;;;8.30;99.90;;;7.42;100.00;101662.22;4203029;28;20028;-81
2022/11/13 04:07:13;;;;;;;16.33;12.27;;;8.30;99.90;;;7.42;100.00;101667.47;4187378;28;20059;-81
2022/11/13 04:09:14;;;;;;;20.00;13.63;;;8.30;99.90;;;7.39;100.00;101658.03;4187774;28;20029;-81
2022/11/13 04:11:15;;;;;;;18.42;12.88;;;8.30;99.90;;;7.40;100.00;101670.22;4203058;28;20028;-81
2022/11/13 04:13:16;;;;;;;16.38;11.80;;;8.30;99.90;;;7.40;100.00;101666.75;4187427;28;20021;-81
2022/11/13 04:15:17;;;;;;;13.55;10.75;;;8.20;99.90;;;7.30;100.00;101648.22;4187232;28;20037;-80
2022/11/13 04:17:17;;;;;;;16.13;11.60;;;8.30;99.90;;;7.31;100.00;101662.19;4202742;28;20017;-81
2022/11/13 04:19:18;;;;;;;24.42;14.40;;;8.20;99.90;;;7.34;100.00;101654.06;4202748;28;20028;-80
2022/11/13 04:21:19;;;;;;;21.85;13.70;;;8.20;99.90;;;7.35;100.00;101656.56;4187199;28;20024;-81
2022/11/13 04:23:20;;;;;;;18.27;12.38;;;8.20;99.90;;;7.32;100.00;101648.94;4187156;28;20025;-81
2022/11/13 04:25:21;;;;;;;16.98;12.93;;;8.20;99.90;;;7.33;100.00;101657.63;4186271;28;20029;-81
2022/11/13 04:27:22;;;;;;;19.45;13.13;;;8.20;99.90;;;7.33;100.00;101657.63;4187299;28;20484;-81
2022/11/13 04:29:23;;;;;;;21.15;13.50;;;8.20;99.90;;;7.34;100.00;101660.16;4187124;28;20033;-81
2022/11/13 04:31:23;;;;;;;18.65;13.68;;;8.20;99.90;;;7.34;100.00;101652.28;4187241;28;20025;-81
2022/11/13 04:33:24;;;;;;;17.42;12.55;;;8.20;99.90;;;7.32;100.00;101651.56;4186984;28;20045;-81
2022/11/13 04:35:25;;;;;;;21.83;14.48;;;8.20;99.90;;;7.37;100.00;101653.84;4187060;28;20055;-81
2022/11/13 04:37:26;;;;;;;19.90;13.95;;;8.20;99.90;;;7.39;100.00;101646.69;4185770;28;20017;-81
2022/11/13 04:39:27;;;;;;;18.63;12.90;;;8.20;99.90;;;7.33;100.00;101628.78;4169142;28;20034;-81
2022/11/13 04:43:47;;;;;;;16.15;12.02;;;8.20;99.90;;;7.24;100.00;101633.75;4187086;28;20086;-80
2022/11/13 04:45:51;;;;;;;15.75;11.32;;;8.20;99.90;;;7.20;100.00;101615.72;4190448;28;20467;-80
2022/11/13 04:47:53;;;;;;;17.70;11.38;;;8.10;99.90;;;7.15;100.00;101629.19;4185377;28;20075;-81
2022/11/13 04:49:54;;;;;;;18.60;12.25;;;8.10;99.90;;;7.13;100.00;101617.13;4187093;28;20116;-80
2022/11/13 04:51:54;;;;;;;15.60;11.00;;;8.00;99.90;;;7.06;100.00;101611.50;4202002;28;20032;-80
2022/11/13 04:53:55;;;;;;;15.80;11.10;;;8.00;99.90;;;7.04;100.00;101615.19;4186824;28;20055;-80
2022/11/13 04:55:56;;;;;;;17.92;11.45;;;8.00;99.90;;;7.02;100.00;101598.69;4201966;28;20609;-80
2022/11/13 04:57:57;;;;;;;18.17;12.18;;;7.90;99.90;;;7.04;100.00;101605.53;4186671;28;20025;-80
2022/11/13 04:59:58;;;;;;;16.25;12.27;;;7.90;99.90;;;7.13;100.00;101593.53;4201886;28;20108;-80
2022/11/13 05:01:59;;;;;;;21.23;14.25;;;8.00;99.90;;;7.15;100.00;101594.22;4201789;28;20027;-80
2022/11/13 05:04:00;;;;;;;18.67;13.63;;;8.10;99.90;;;7.20;100.00;101599.97;4201922;28;20020;-80
2022/11/13 05:06:04;;;;;;;15.55;11.63;;;8.10;99.90;;;7.13;100.00;101588.28;4185246;28;20132;-81
2022/11/13 05:08:05;;;;;;;20.10;12.93;;;8.10;99.90;;;7.15;100.00;101591.59;4185261;28;20029;-80
2022/11/13 05:10:06;;;;;;;17.45;11.77;;;8.10;99.90;;;7.17;100.00;101594.94;4202194;28;20125;-81
2022/11/13 05:12:07;;;;;;;19.80;12.57;;;8.10;99.90;;;7.15;100.00;101592.44;4185138;28;20028;-80
2022/11/13 05:14:11;;;;;;;17.02;12.32;;;8.10;99.90;;;7.19;100.00;101593.06;4186666;28;20033;-80
2022/11/13 05:16:14;;;;;;;21.10;12.52;;;8.10;99.90;;;7.19;100.00;101593.06;4201481;28;20110;-81
2022/11/13 05:18:15;;;;;;;20.20;12.57;;;8.10;99.90;;;7.17;100.00;101593.16;4182296;28;20111;-81
2022/11/13 05:20:16;;;;;;;19.70;13.45;;;8.10;99.90;;;7.16;100.00;101581.03;4186606;28;20373;-81
2022/11/13 05:22:17;;;;;;;20.50;12.95;;;8.10;99.90;;;7.16;100.00;101588.88;4201420;28;20032;-80
2022/11/13 05:24:18;;;;;;;19.98;12.45;;;8.10;99.90;;;7.17;100.00;101584.44;4186384;28;20025;-80
2022/11/13 05:26:19;;;;;;;18.35;12.40;;;8.10;99.90;;;7.15;100.00;101578.50;4201557;28;20123;-80
2022/11/13 05:28:19;;;;;;;18.90;11.60;;;8.00;99.90;;;7.16;100.00;101574.94;4186175;28;20512;-80
2022/11/13 05:30:20;;;;;;;17.55;11.77;;;8.10;99.90;;;7.18;100.00;101580.88;4168503;28;20060;-80
2022/11/13 05:32:21;;;;;;;14.45;10.38;;;8.10;99.90;;;7.14;100.00;101568.94;4186183;28;20039;-80
2022/11/13 05:34:22;;;;;;;16.23;11.50;;;8.00;99.90;;;7.10;100.00;101568.34;4185947;28;20045;-80
2022/11/13 05:36:23;;;;;;;16.75;12.02;;;8.00;99.90;;;7.19;100.00;101572.06;4185679;28;20111;-80
2022/11/13 05:38:24;;;;;;;19.77;12.77;;;8.10;99.90;;;7.17;100.00;101572.19;4186177;28;20397;-80
2022/11/13 05:40:24;;;;;;;20.20;12.18;;;8.10;99.90;;;7.17;100.00;101579.22;4186111;28;20025;-81
2022/11/13 05:42:25;;;;;;;16.00;11.40;;;8.10;99.90;;;7.17;100.00;101577.41;4201328;28;20021;-80
2022/11/13 05:44:26;;;;;;;15.85;11.25;;;8.00;99.90;;;7.13;100.00;101581.25;4185370;28;20151;-80
2022/11/13 05:46:29;;;;;;;16.85;11.73;;;8.10;99.90;;;7.10;100.00;101576.22;4186051;28;20410;-80
2022/11/13 05:48:30;;;;;;;15.20;11.25;;;8.00;99.90;;;7.08;100.00;101570.22;4186161;28;20044;-81
2022/11/13 05:50:31;;;;;;;33.03;12.60;;;8.00;99.90;;;7.10;100.00;101578.00;4201183;28;20075;-80
2022/11/13 05:52:31;;;;;;;15.77;11.93;;;8.00;99.90;;;7.09;100.00;101574.53;4185561;28;20407;-80
2022/11/13 05:54:32;;;;;;;15.52;10.90;;;8.00;99.90;;;7.04;100.00;101562.72;4201738;28;20033;-80
2022/11/13 05:56:35;;;;;;;16.00;10.82;;;8.00;99.90;;;7.06;100.00;101572.13;4184414;28;20024;-80
2022/11/13 05:58:37;;;;;;;16.73;10.77;;;8.00;99.90;;;7.02;100.00;101570.69;4184808;28;20028;-80
2022/11/13 06:00:38;;;;;;;17.30;10.50;;;7.90;99.90;;;6.95;100.00;101576.50;4200979;28;20035;-80
2022/11/13 06:02:39;;;;;;;14.95;10.50;;;7.90;99.90;;;6.91;100.00;101577.66;4184579;28;20022;-80
2022/11/13 06:04:40;;;;;;;22.92;11.77;;;7.80;99.90;;;6.90;100.00;101576.00;4185707;28;20029;-80
2022/11/13 06:06:41;;;;;;;20.60;10.77;;;7.80;99.90;;;6.90;100.00;101576.00;4200828;28;20031;-80
2022/11/13 06:08:43;;;;;;;21.42;11.63;;;7.70;99.90;;;6.91;100.00;101580.28;4201000;28;20038;-80
2022/11/13 06:10:44;;;;;;;16.10;12.07;;;7.80;99.90;;;6.92;100.00;101571.47;4185793;28;20025;-80
2022/11/13 06:12:45;;;;;;;17.73;12.73;;;7.80;99.90;;;6.92;100.00;101572.31;4201039;28;20024;-80
2022/11/13 06:14:46;;;;;;;14.85;10.77;;;7.80;99.90;;;6.91;100.00;101573.25;4185478;28;20029;-80
2022/11/13 06:16:47;;;;;;;17.48;11.57;;;7.80;99.90;;;6.87;100.00;101569.19;4178476;28;20033;-80
2022/11/13 06:18:49;;;;;;;17.75;11.55;;;7.80;99.90;;;6.85;100.00;101567.63;4194921;28;20403;-79
2022/11/13 06:20:50;;;;;;;14.82;10.82;;;7.80;99.90;;;6.81;100.00;101571.44;4200718;28;20546;-81
2022/11/13 06:22:51;;;;;;;18.63;11.38;;;7.80;99.90;;;6.80;100.00;101575.84;4182536;28;20029;-80
2022/11/13 06:24:52;;;;;;;20.27;12.90;;;7.70;99.90;;;6.75;100.00;101566.63;4178563;28;20025;-80
2022/11/13 06:26:52;;;;;;;16.65;11.30;;;7.70;99.90;;;6.64;100.00;101542.03;4194291;28;20021;-80
2022/11/13 06:28:54;;;;;;;16.85;10.73;;;7.70;99.90;;;6.72;100.00;101553.75;4179497;28;20036;-80
2022/11/13 06:30:55;;;;;;;16.17;11.25;;;7.70;99.90;;;6.72;100.00;101561.63;4174963;28;20505;-80
2022/11/13 06:32:56;;;;;;;16.20;11.32;;;7.60;99.90;;;6.64;100.00;101560.38;4176972;28;20110;-80
2022/11/13 06:34:58;;;;;;;16.90;11.13;;;7.60;99.90;;;6.65;100.00;101562.06;4178791;28;20549;-80
2022/11/13 06:36:59;;;;;;;18.35;12.40;;;7.60;99.90;;;6.56;100.00;101554.84;4177274;28;20045;-80
2022/11/13 06:39:00;;;;;;;16.52;12.02;;;7.50;99.90;;;6.60;100.00;101563.34;4193850;28;20541;-80
2022/11/13 06:41:02;;;;;;;14.00;10.57;;;7.50;99.90;;;6.54;100.00;101559.34;4183414;28;20047;-80
2022/11/13 06:43:03;;;;;;;13.00;10.15;;;7.50;99.90;;;6.51;100.00;101556.94;4200602;28;20035;-80
2022/11/13 06:45:04;;;;;;;19.52;11.48;;;7.50;99.90;;;6.49;100.00;101568.50;4179668;28;20029;-80
2022/11/13 06:47:05;;;;;;;15.57;10.82;;;7.40;99.90;;;6.43;100.00;101567.16;4176816;28;20075;-80
2022/11/13 06:49:06;;;;;;;13.57;10.07;;;7.40;99.90;;;6.38;100.00;101560.56;4185336;28;20025;-80
2022/11/13 06:51:15;;;;;;;14.30;10.60;;;7.40;99.90;;;6.37;100.00;101556.25;4185129;28;20036;-80
2022/11/13 06:53:17;;;;;;;15.35;10.55;;;7.30;99.90;;;6.31;100.00;101547.06;4200152;28;20035;-80
2022/11/13 06:55:17;;;;;;;19.40;12.13;;;7.30;99.90;;;6.36;100.00;101552.81;4185099;28;20033;-80
2022/11/13 06:57:18;;;;;;;13.65;9.73;;;7.30;99.90;;;6.36;100.00;101552.81;4185092;28;20079;-80
2022/11/13 06:59:20;;;;;;;13.65;9.15;;;7.30;99.90;;;6.38;100.00;101558.78;4200312;28;20024;-80
2022/11/13 07:01:24;;;;;;;13.30;10.10;;;7.30;99.90;;;6.38;100.00;101560.56;4185322;28;20029;-80
2022/11/13 07:03:26;;;;;;;13.25;8.95;;;7.30;99.90;;;6.36;100.00;101565.91;4185069;28;20043;-80
2022/11/13 07:05:27;;;;;;;19.05;10.57;;;7.30;99.90;;;6.37;100.00;101572.00;4200270;28;20028;-80
2022/11/13 07:07:27;;;;;;;18.42;12.15;;;7.30;99.90;;;6.35;100.00;101561.63;4183628;28;20037;-80
2022/11/13 07:09:30;;;;;;;15.15;11.27;;;7.30;99.90;;;6.36;100.00;101565.91;4183849;28;20033;-80
2022/11/13 07:11:30;;;;;;;18.38;10.73;;;7.30;99.90;;;6.37;100.00;101558.88;4184850;28;20602;-80
2022/11/13 07:13:31;;;;;;;18.45;12.18;;;7.30;99.90;;;6.40;100.00;101562.13;4200005;28;20040;-80
2022/11/13 07:15:38;;;;;;;20.55;11.98;;;7.30;99.90;;;6.43;100.00;101567.16;4171779;28;20032;-80
2022/11/13 07:17:39;;;;;;;15.98;12.32;;;7.30;99.90;;;6.40;100.00;101556.88;4185038;28;20029;-80
2022/11/13 07:19:39;;;;;;;18.35;11.40;;;7.30;99.90;;;6.38;100.00;101550.94;4184521;28;20401;-79
2022/11/13 07:21:40;;;;;;;16.77;11.57;;;7.30;99.90;;;6.40;100.00;101566.53;4200098;28;20017;-80
2022/11/13 07:23:44;;;;;;;16.08;11.45;;;7.30;99.90;;;6.42;100.00;101570.72;4183544;28;20073;-80
2022/11/13 07:25:45;;;;;;;13.15;10.75;;;7.30;99.90;;;6.40;100.00;101570.00;4185004;28;20089;-81
2022/11/13 07:27:46;;;;;;;17.63;12.18;;;7.30;99.90;;;6.42;100.00;101569.91;4184217;28;20029;-80
2022/11/13 07:29:46;;;;;;;15.68;11.60;;;7.30;99.90;;;6.47;100.00;101573.88;4188057;28;20025;-80
2022/11/13 07:31:47;;;;;;;16.27;11.48;;;7.30;99.90;;;6.50;100.00;101578.88;4188309;28;20104;-80
2022/11/13 07:33:50;;;;;;;16.27;11.75;;;7.40;99.90;;;6.50;100.00;101575.44;4188068;28;20067;-80
2022/11/13 07:35:59;;;;;;;16.02;10.77;;;7.40;99.90;;;6.50;100.00;101573.66;4203374;28;20480;-80
2022/11/13 07:38:00;;;;;;;14.35;10.20;;;7.40;99.90;;;6.52;100.00;101578.75;4202779;28;20115;-80
2022/11/13 07:40:02;;;;;;;16.95;11.57;;;7.40;99.90;;;6.50;100.00;101581.50;4186615;28;20021;-80
2022/11/13 07:42:03;;;;;;;13.02;10.38;;;7.40;99.90;;;6.51;100.00;101588.41;4203284;28;20029;-80
2022/11/13 07:44:04;;;;;;;15.80;11.18;;;7.50;99.90;;;6.54;100.00;101593.44;4188013;28;20107;-80
2022/11/13 07:46:05;;;;;;;14.73;11.15;;;7.50;99.90;;;6.55;100.00;101586.41;4201898;28;20024;-80
2022/11/13 07:48:06;;;;;;;18.92;12.05;;;7.50;99.90;;;6.55;100.00;101589.03;4186533;28;20083;-80
2022/11/13 07:50:08;;;;;;;13.85;10.85;;;7.50;99.90;;;6.60;100.00;101579.88;4170191;28;20032;-80
2022/11/13 07:52:09;;;;;;;14.70;10.93;;;7.50;99.90;;;6.63;100.00;101581.47;4187588;28;20045;-80
2022/11/13 07:54:10;;;;;;;17.30;10.85;;;7.50;99.90;;;6.71;100.00;101592.25;4202907;28;20032;-80
2022/11/13 07:56:10;;;;;;;14.90;10.38;;;7.60;99.90;;;6.74;100.00;101586.78;4187666;28;20029;-80
2022/11/13 07:58:12;;;;;;;13.43;10.75;;;7.60;99.90;;;6.72;100.00;101578.16;4187710;28;20404;-81
2022/11/13 08:00:14;;;;;;;14.77;11.18;;;7.70;99.90;;;6.71;100.00;101586.16;4203167;28;20104;-80
2022/11/13 08:02:15;;;;;;;13.23;9.80;;;7.60;99.90;;;6.67;100.00;101564.56;4202915;28;20024;-80
2022/11/13 08:04:16;;;;;;;15.20;10.75;;;7.60;99.90;;;6.69;100.00;101568.72;4203056;28;20032;-80
2022/11/13 08:06:17;;;;;;;15.30;12.05;;;7.60;99.90;;;6.82;100.00;101573.09;4201738;28;20031;-80
2022/11/13 08:08:18;;;;;;;12.85;9.48;;;7.70;99.90;;;6.81;100.00;101571.44;4185245;28;20033;-79
2022/11/13 08:10:20;;;;;;;16.90;11.60;;;7.70;99.90;;;6.85;100.00;101575.50;4202155;28;20029;-80
2022/11/13 08:12:20;;;;;;;13.65;10.48;;;7.70;99.90;;;6.85;100.00;101565.00;4185791;28;20044;-80
2022/11/13 08:14:21;;;;;;;18.33;11.80;;;7.80;99.90;;;6.96;100.00;101570.31;4188807;28;20029;-80
2022/11/13 08:16:22;;;;;;;12.88;9.95;;;7.80;99.90;;;6.98;100.00;101571.03;4191226;28;20091;-79
2022/11/13 08:18:23;;;;;;;16.25;11.05;;;7.90;99.90;;;7.03;100.00;101580.25;4201534;28;20039;-78
2022/11/13 08:20:26;;;;;;;22.60;12.55;;;7.90;99.90;;;7.07;100.00;101567.72;4186585;28;20029;-80
2022/11/13 08:22:28;;;;;;;19.63;11.25;;;7.90;99.90;;;7.10;100.00;101564.88;4186176;28;20021;-79